createdAt,value
2018-10-07T00:01:11.880Z,15.60
2018-10-07T00:03:39.179Z,15.70
2018-10-07T00:06:06.450Z,15.60
2018-10-07T00:08:33.875Z,15.70
2018-10-07T00:11:01.855Z,15.60
2018-10-07T00:13:29.115Z,15.70
2018-10-07T00:15:56.372Z,15.60
2018-10-07T00:18:23.608Z,15.40
2018-10-07T00:20:50.860Z,15.50
2018-10-07T00:23:19.132Z,15.40
2018-10-07T00:25:46.387Z,15.10
2018-10-07T00:28:13.608Z,15.10
2018-10-07T00:30:40.851Z,15.20
2018-10-07T00:33:08.147Z,15.20
2018-10-07T00:35:35.410Z,15.20
2018-10-07T00:38:02.664Z,15.10
2018-10-07T00:40:29.944Z,15.10
2018-10-07T00:42:57.227Z,15.20
2018-10-07T00:45:24.504Z,15.20
2018-10-07T00:47:51.752Z,15.20
2018-10-07T00:50:19.037Z,15.20
2018-10-07T00:52:46.339Z,15.10
2018-10-07T00:55:13.599Z,15.10
2018-10-07T00:57:41.846Z,14.90
2018-10-07T01:00:09.196Z,14.90
2018-10-07T01:02:36.471Z,14.90
2018-10-07T01:05:03.915Z,14.90
2018-10-07T01:07:31.160Z,15.00
2018-10-07T01:09:58.431Z,15.00
2018-10-07T01:12:25.684Z,15.20
2018-10-07T01:14:52.953Z,15.20
2018-10-07T01:17:20.208Z,15.20
2018-10-07T01:19:47.470Z,15.20
2018-10-07T01:22:14.691Z,15.20
2018-10-07T01:24:41.955Z,15.20
2018-10-07T01:27:09.256Z,15.20
2018-10-07T01:29:36.495Z,15.20
2018-10-07T01:32:03.756Z,15.10
2018-10-07T01:34:30.988Z,15.10
2018-10-07T01:36:58.251Z,15.00
2018-10-07T01:39:25.523Z,15.10
2018-10-07T01:41:52.750Z,15.10
2018-10-07T01:44:19.995Z,15.10
2018-10-07T01:46:47.228Z,15.00
2018-10-07T01:49:14.524Z,15.00
2018-10-07T01:51:41.832Z,14.90
2018-10-07T01:54:09.106Z,14.80
2018-10-07T01:56:36.746Z,14.70
2018-10-07T01:59:04.008Z,14.60
2018-10-07T02:01:31.287Z,14.60
2018-10-07T02:03:58.562Z,14.70
2018-10-07T02:06:25.827Z,14.80
2018-10-07T02:08:53.077Z,14.90
2018-10-07T02:11:20.368Z,14.20
2018-10-07T02:13:48.150Z,15.00
2018-10-07T02:16:16.046Z,15.10
2018-10-07T02:18:43.288Z,15.00
2018-10-07T02:21:10.546Z,14.90
2018-10-07T02:23:37.791Z,14.90
2018-10-07T02:26:06.064Z,14.90
2018-10-07T02:28:33.314Z,15.00
2018-10-07T02:31:00.572Z,15.00
2018-10-07T02:33:27.813Z,15.00
2018-10-07T02:35:55.083Z,14.90
2018-10-07T02:38:22.344Z,15.00
2018-10-07T02:40:50.775Z,15.00
2018-10-07T02:43:18.046Z,14.90
2018-10-07T02:45:45.308Z,14.90
2018-10-07T02:48:12.562Z,14.80
2018-10-07T02:50:40.156Z,14.80
2018-10-07T02:53:07.461Z,14.80
2018-10-07T02:55:34.736Z,14.90
2018-10-07T02:58:02.983Z,14.90
2018-10-07T03:00:30.283Z,14.90
2018-10-07T03:02:57.533Z,14.90
2018-10-07T03:05:24.857Z,14.90
2018-10-07T03:07:52.111Z,15.00
2018-10-07T03:10:19.364Z,15.10
2018-10-07T03:12:46.596Z,15.10
2018-10-07T03:15:13.860Z,15.10
2018-10-07T03:17:41.191Z,15.10
2018-10-07T03:20:08.531Z,15.10
2018-10-07T03:22:35.847Z,15.00
2018-10-07T03:25:03.247Z,15.10
2018-10-07T03:27:30.556Z,15.10
2018-10-07T03:29:57.827Z,14.90
2018-10-07T03:32:25.128Z,15.20
2018-10-07T03:34:52.412Z,15.20
2018-10-07T03:37:19.644Z,15.20
2018-10-07T03:39:46.904Z,15.20
2018-10-07T03:42:14.618Z,15.20
2018-10-07T03:44:42.153Z,15.20
2018-10-07T03:47:09.530Z,15.20
2018-10-07T03:49:36.968Z,15.30
2018-10-07T03:52:04.238Z,15.20
2018-10-07T03:54:31.806Z,15.30
2018-10-07T03:56:59.647Z,15.30
2018-10-07T03:59:26.913Z,15.30
2018-10-07T04:01:54.812Z,15.20
2018-10-07T04:04:22.072Z,15.00
2018-10-07T04:06:49.327Z,15.00
2018-10-07T04:09:16.609Z,14.90
2018-10-07T04:11:43.900Z,15.00
2018-10-07T04:14:12.248Z,15.00
2018-10-07T04:16:39.502Z,14.80
2018-10-07T04:19:07.259Z,14.80
2018-10-07T04:21:34.515Z,14.90
2018-10-07T04:24:02.316Z,15.00
2018-10-07T04:26:29.583Z,15.00
2018-10-07T04:28:56.867Z,15.00
2018-10-07T04:31:24.565Z,15.20
2018-10-07T04:33:51.846Z,15.30
2018-10-07T04:36:19.092Z,15.40
2018-10-07T04:38:46.411Z,15.40
2018-10-07T04:41:13.772Z,15.30
2018-10-07T04:43:41.059Z,15.40
2018-10-07T04:46:09.267Z,15.40
2018-10-07T04:48:36.580Z,15.30
2018-10-07T04:51:03.819Z,15.40
2018-10-07T04:53:31.070Z,15.40
2018-10-07T04:55:58.305Z,15.50
2018-10-07T04:58:25.564Z,15.40
2018-10-07T05:00:52.960Z,15.50
2018-10-07T05:03:20.276Z,15.50
2018-10-07T05:05:47.844Z,15.60
2018-10-07T05:08:15.355Z,15.50
2018-10-07T05:10:46.551Z,15.50
2018-10-07T05:13:20.684Z,15.50
2018-10-07T05:15:50.947Z,15.50
2018-10-07T05:18:18.334Z,15.50
2018-10-07T05:20:45.601Z,15.50
2018-10-07T05:23:12.964Z,15.40
2018-10-07T05:25:40.218Z,15.40
2018-10-07T05:28:07.476Z,15.40
2018-10-07T05:30:34.723Z,15.40
2018-10-07T05:33:02.142Z,15.40
2018-10-07T05:35:29.386Z,15.40
2018-10-07T05:37:56.657Z,15.40
2018-10-07T05:40:23.899Z,15.30
2018-10-07T05:42:51.148Z,15.30
2018-10-07T05:45:18.424Z,15.20
2018-10-07T05:47:45.700Z,15.20
2018-10-07T05:50:12.959Z,15.20
2018-10-07T05:52:40.206Z,15.30
2018-10-07T05:55:08.027Z,15.30
2018-10-07T05:57:35.311Z,15.20
2018-10-07T06:00:02.613Z,15.20
2018-10-07T06:02:29.949Z,15.20
2018-10-07T06:04:57.847Z,15.10
2018-10-07T06:07:26.103Z,15.10
2018-10-07T06:09:53.391Z,15.20
2018-10-07T06:12:20.625Z,15.10
2018-10-07T06:14:59.563Z,15.20
2018-10-07T06:17:26.691Z,15.10
2018-10-07T06:19:53.936Z,15.10
2018-10-07T06:22:21.228Z,15.10
2018-10-07T06:24:48.484Z,15.30
2018-10-07T06:27:15.760Z,15.40
2018-10-07T06:29:43.101Z,15.50
2018-10-07T06:32:10.316Z,15.60
2018-10-07T06:34:37.583Z,15.70
2018-10-07T06:37:04.910Z,15.70
2018-10-07T06:39:32.176Z,15.50
2018-10-07T06:41:59.511Z,15.50
2018-10-07T06:44:26.763Z,15.60
2018-10-07T06:46:54.024Z,15.60
2018-10-07T06:49:21.275Z,15.80
2018-10-07T06:51:48.723Z,15.90
2018-10-07T06:54:16.039Z,16.00
2018-10-07T06:56:43.316Z,16.10
2018-10-07T06:59:10.577Z,16.10
2018-10-07T07:01:38.143Z,16.20
2018-10-07T07:04:05.459Z,16.20
2018-10-07T07:06:33.093Z,16.10
2018-10-07T07:09:00.319Z,16.20
2018-10-07T07:11:27.573Z,16.30
2018-10-07T07:13:54.825Z,16.40
2018-10-07T07:16:22.079Z,16.50
2018-10-07T07:18:49.327Z,16.60
2018-10-07T07:21:16.582Z,16.40
2018-10-07T07:23:43.833Z,16.80
2018-10-07T07:26:11.068Z,16.80
2018-10-07T07:28:38.309Z,16.80
2018-10-07T07:31:05.644Z,16.60
2018-10-07T07:33:32.865Z,16.80
2018-10-07T07:36:00.778Z,16.70
2018-10-07T07:38:28.715Z,16.60
2018-10-07T07:40:55.984Z,16.80
2018-10-07T07:43:23.235Z,16.70
2018-10-07T07:45:52.329Z,16.70
2018-10-07T07:48:19.667Z,16.80
2018-10-07T07:50:47.464Z,16.80
2018-10-07T07:53:14.851Z,16.80
2018-10-07T07:55:42.140Z,16.70
2018-10-07T07:58:09.435Z,16.50
2018-10-07T08:00:36.734Z,16.40
2018-10-07T08:03:04.035Z,16.50
2018-10-07T08:05:31.344Z,16.50
2018-10-07T08:07:58.671Z,16.80
2018-10-07T08:10:25.921Z,17.00
2018-10-07T08:12:53.223Z,17.10
2018-10-07T08:15:20.672Z,17.30
2018-10-07T08:17:49.797Z,17.40
2018-10-07T08:20:17.808Z,17.60
2018-10-07T08:22:46.102Z,17.70
2018-10-07T08:25:13.350Z,17.90
2018-10-07T08:27:40.981Z,18.00
2018-10-07T08:30:08.349Z,18.00
2018-10-07T08:32:35.696Z,18.10
2018-10-07T08:35:03.151Z,18.20
2018-10-07T08:37:30.399Z,18.30
2018-10-07T08:39:58.519Z,18.40
2018-10-07T08:42:25.755Z,18.60
2018-10-07T08:44:53.005Z,18.70
2018-10-07T08:47:22.183Z,18.80
2018-10-07T08:49:50.181Z,18.90
2018-10-07T08:52:17.579Z,18.90
2018-10-07T08:54:45.371Z,18.70
2018-10-07T08:57:12.739Z,18.60
2018-10-07T08:59:40.027Z,18.60
2018-10-07T09:02:07.417Z,18.70
2018-10-07T09:04:34.701Z,18.80
2018-10-07T09:07:02.017Z,18.90
2018-10-07T09:09:29.319Z,18.90
2018-10-07T09:11:56.589Z,19.00
2018-10-07T09:14:23.884Z,19.00
2018-10-07T09:16:51.165Z,19.10
2018-10-07T09:19:18.411Z,19.30
2018-10-07T09:21:46.668Z,19.40
2018-10-07T09:24:13.986Z,19.60
2018-10-07T09:26:42.297Z,19.80
2018-10-07T09:29:09.653Z,20.00
2018-10-07T09:31:37.841Z,20.10
2018-10-07T09:34:06.534Z,20.30
2018-10-07T09:36:35.970Z,20.30
2018-10-07T09:39:04.346Z,20.40
2018-10-07T09:41:31.644Z,20.50
2018-10-07T09:43:58.944Z,20.50
2018-10-07T09:46:26.254Z,20.70
2018-10-07T09:48:54.296Z,20.90
2018-10-07T09:51:21.980Z,21.00
2018-10-07T09:53:49.337Z,21.10
2018-10-07T09:56:16.963Z,21.10
2018-10-07T09:58:44.575Z,21.10
2018-10-07T10:01:11.878Z,21.30
2018-10-07T10:03:40.164Z,21.40
2018-10-07T10:06:07.476Z,21.70
2018-10-07T10:08:34.812Z,21.80
2018-10-07T10:11:02.816Z,21.60
2018-10-07T10:13:30.005Z,21.50
2018-10-07T10:15:57.257Z,21.50
2018-10-07T10:18:30.292Z,21.80
2018-10-07T10:21:03.886Z,21.90
2018-10-07T10:23:39.796Z,21.70
2018-10-07T10:26:11.108Z,21.50
2018-10-07T10:29:17.523Z,21.10
2018-10-07T10:34:07.514Z,21.00
2018-10-07T10:36:38.447Z,19.60
2018-10-07T10:39:16.735Z,20.90
2018-10-07T10:41:50.973Z,20.70
2018-10-07T10:44:23.441Z,20.60
2018-10-07T10:46:56.545Z,20.70
2018-10-07T10:49:28.304Z,21.10
2018-10-07T10:52:06.182Z,21.40
2018-10-07T10:54:39.932Z,21.60
2018-10-07T10:57:13.821Z,21.70
2018-10-07T10:59:53.332Z,21.70
2018-10-07T11:02:31.055Z,21.90
2018-10-07T11:06:12.707Z,22.30
2018-10-07T11:08:47.763Z,22.30
2018-10-07T11:11:23.957Z,21.70
2018-10-07T11:14:10.493Z,21.40
2018-10-07T11:16:47.328Z,21.30
2018-10-07T11:19:39.417Z,21.50
2018-10-07T11:22:17.705Z,21.90
2018-10-07T11:25:58.082Z,22.00
2018-10-07T11:28:32.952Z,22.10
2018-10-07T11:31:08.154Z,21.90
2018-10-07T11:33:47.878Z,21.70
2018-10-07T11:36:22.176Z,21.70
2018-10-07T11:39:13.907Z,21.70
2018-10-07T11:41:46.568Z,21.40
2018-10-07T11:44:21.792Z,21.40
2018-10-07T11:46:59.721Z,21.70
2018-10-07T11:49:35.127Z,21.90
2018-10-07T11:52:43.977Z,21.80
2018-10-07T11:55:10.267Z,21.60
2018-10-07T11:57:37.545Z,21.50
2018-10-07T12:00:04.900Z,21.70
2018-10-07T12:02:32.205Z,22.00
2018-10-07T12:04:59.532Z,22.40
2018-10-07T12:07:28.339Z,22.70
2018-10-07T12:09:55.695Z,23.10
2018-10-07T12:12:22.963Z,23.20
2018-10-07T12:14:50.255Z,24.20
2018-10-07T12:17:17.516Z,23.40
2018-10-07T12:19:44.804Z,23.40
2018-10-07T12:22:12.058Z,23.70
2018-10-07T12:24:41.748Z,23.90
2018-10-07T12:27:10.141Z,24.20
2018-10-07T12:29:38.065Z,24.20
2018-10-07T12:32:05.570Z,24.10
2018-10-07T12:34:32.896Z,24.00
2018-10-07T12:37:00.183Z,24.10
2018-10-07T12:39:27.560Z,24.00
2018-10-07T12:41:54.797Z,23.90
2018-10-07T12:44:22.139Z,24.00
2018-10-07T12:46:49.419Z,24.10
2018-10-07T12:49:16.679Z,24.20
2018-10-07T12:51:44.358Z,24.20
2018-10-07T12:54:12.020Z,23.90
2018-10-07T12:56:39.236Z,23.90
2018-10-07T12:59:07.019Z,23.50
2018-10-07T13:01:34.308Z,23.10
2018-10-07T13:04:03.113Z,23.10
2018-10-07T13:06:30.347Z,23.20
2018-10-07T13:08:58.233Z,23.20
2018-10-07T13:11:25.525Z,23.20
2018-10-07T13:13:52.834Z,23.30
2018-10-07T13:16:20.142Z,23.50
2018-10-07T13:18:47.492Z,23.60
2018-10-07T13:21:14.831Z,23.60
2018-10-07T13:23:42.675Z,23.60
2018-10-07T13:26:09.944Z,23.60
2018-10-07T13:28:37.699Z,23.40
2018-10-07T13:31:05.098Z,23.30
2018-10-07T13:33:32.441Z,23.40
2018-10-07T13:35:59.704Z,23.60
2018-10-07T13:38:26.975Z,23.70
2018-10-07T13:40:54.252Z,23.70
2018-10-07T13:43:21.583Z,23.90
2018-10-07T13:45:48.891Z,24.10
2018-10-07T13:48:16.115Z,24.30
2018-10-07T13:50:43.837Z,24.90
2018-10-07T13:53:11.165Z,25.30
2018-10-07T13:55:38.435Z,25.10
2018-10-07T13:58:05.734Z,25.30
2018-10-07T14:00:33.024Z,25.70
2018-10-07T14:03:00.327Z,26.10
2018-10-07T14:05:28.327Z,26.70
2018-10-07T14:07:56.665Z,26.50
2018-10-07T14:10:23.968Z,26.70
2018-10-07T14:12:51.252Z,26.30
2018-10-07T14:15:18.511Z,26.10
2018-10-07T14:17:46.163Z,26.00
2018-10-07T14:20:13.464Z,25.90
2018-10-07T14:22:40.748Z,25.60
2018-10-07T14:25:08.061Z,25.20
2018-10-07T14:27:35.331Z,24.80
2018-10-07T14:30:02.619Z,24.40
2018-10-07T14:32:29.887Z,24.10
2018-10-07T14:34:57.143Z,23.80
2018-10-07T14:37:24.567Z,23.90
2018-10-07T14:39:51.861Z,23.90
2018-10-07T14:42:19.112Z,23.90
2018-10-07T14:44:46.599Z,23.70
2018-10-07T14:47:16.387Z,23.80
2018-10-07T14:49:43.697Z,23.70
2018-10-07T14:52:10.963Z,23.60
2018-10-07T14:54:40.228Z,23.50
2018-10-07T14:57:08.207Z,23.20
2018-10-07T14:59:36.222Z,22.90
2018-10-07T15:02:03.553Z,22.60
2018-10-07T15:04:30.799Z,22.40
2018-10-07T15:06:58.093Z,22.10
2018-10-07T15:09:25.371Z,21.90
2018-10-07T15:11:52.680Z,21.80
2018-10-07T15:14:19.952Z,21.60
2018-10-07T15:16:47.207Z,21.50
2018-10-07T15:19:14.455Z,21.30
2018-10-07T15:21:41.767Z,21.20
2018-10-07T15:24:09.638Z,21.10
2018-10-07T15:26:36.893Z,20.90
2018-10-07T15:29:04.178Z,20.90
2018-10-07T15:31:31.476Z,21.30
2018-10-07T15:33:58.751Z,21.80
2018-10-07T15:36:26.012Z,22.60
2018-10-07T15:38:53.336Z,23.20
2018-10-07T15:41:20.587Z,23.40
2018-10-07T15:43:47.832Z,23.60
2018-10-07T15:46:15.085Z,23.50
2018-10-07T15:48:42.436Z,23.20
2018-10-07T15:51:09.669Z,22.70
2018-10-07T15:53:36.931Z,22.10
2018-10-07T15:56:04.352Z,22.10
2018-10-07T15:58:31.587Z,22.00
2018-10-07T16:00:58.968Z,21.90
2018-10-07T16:03:26.230Z,22.20
2018-10-07T16:05:53.475Z,22.30
2018-10-07T16:08:20.891Z,22.20
2018-10-07T16:10:48.579Z,21.80
2018-10-07T16:13:15.815Z,21.50
2018-10-07T16:15:43.096Z,21.20
2018-10-07T16:18:10.372Z,20.90
2018-10-07T16:20:37.711Z,20.90
2018-10-07T16:23:05.133Z,20.70
2018-10-07T16:25:32.399Z,20.40
2018-10-07T16:27:59.640Z,20.30
2018-10-07T16:30:26.916Z,20.10
2018-10-07T16:32:54.199Z,19.90
2018-10-07T16:35:21.867Z,19.70
2018-10-07T16:37:49.995Z,19.40
2018-10-07T16:40:17.279Z,19.20
2018-10-07T16:42:44.549Z,19.10
2018-10-07T16:45:11.813Z,18.90
2018-10-07T16:47:39.052Z,18.90
2018-10-07T16:50:06.347Z,18.70
2018-10-07T16:52:34.447Z,18.60
2018-10-07T16:55:01.708Z,18.50
2018-10-07T16:57:29.651Z,18.40
2018-10-07T16:59:56.961Z,18.30
2018-10-07T17:02:24.297Z,18.10
2018-10-07T17:04:51.552Z,18.00
2018-10-07T17:07:18.867Z,18.00
2018-10-07T17:09:46.139Z,17.90
2018-10-07T17:12:13.432Z,17.90
2018-10-07T17:14:40.696Z,17.60
2018-10-07T17:17:07.962Z,17.60
2018-10-07T17:19:35.293Z,17.60
2018-10-07T17:22:02.588Z,17.50
2018-10-07T17:24:29.898Z,17.50
2018-10-07T17:26:57.195Z,17.40
2018-10-07T17:29:24.467Z,17.30
2018-10-07T17:31:51.700Z,17.20
2018-10-07T17:34:18.985Z,17.10
2018-10-07T17:36:46.258Z,17.10
2018-10-07T17:39:13.554Z,17.10
2018-10-07T17:41:41.099Z,17.10
2018-10-07T17:44:08.551Z,17.00
2018-10-07T17:46:35.800Z,17.00
2018-10-07T17:49:03.376Z,17.00
2018-10-07T17:51:30.462Z,17.00
2018-10-07T17:53:57.655Z,16.70
2018-10-07T17:56:24.872Z,16.70
2018-10-07T17:58:52.124Z,16.70
2018-10-07T18:01:19.375Z,16.70
2018-10-07T18:03:46.627Z,16.60
2018-10-07T18:06:13.857Z,16.60
2018-10-07T18:08:41.088Z,16.50
2018-10-07T18:11:08.376Z,16.60
2018-10-07T18:13:35.631Z,16.50
2018-10-07T18:16:02.908Z,16.50
2018-10-07T18:18:30.178Z,16.30
2018-10-07T18:20:58.448Z,16.30
2018-10-07T18:23:25.695Z,16.30
2018-10-07T18:25:52.925Z,16.20
2018-10-07T18:28:20.134Z,15.70
2018-10-07T18:30:47.339Z,16.10
2018-10-07T18:33:14.555Z,16.10
2018-10-07T18:35:41.763Z,16.00
2018-10-07T18:38:08.966Z,15.90
2018-10-07T18:40:36.259Z,15.80
2018-10-07T18:43:03.499Z,15.80
2018-10-07T18:45:30.734Z,15.70
2018-10-07T18:47:59.730Z,15.70
2018-10-07T18:50:26.983Z,15.60
2018-10-07T18:52:54.196Z,15.70
2018-10-07T18:55:22.483Z,15.40
2018-10-07T18:57:49.687Z,15.40
2018-10-07T19:00:17.144Z,15.30
2018-10-07T19:02:44.468Z,15.30
2018-10-07T19:05:11.575Z,15.20
2018-10-07T19:07:38.947Z,15.20
2018-10-07T19:10:06.264Z,15.10
2018-10-07T19:12:33.563Z,15.10
2018-10-07T19:15:00.823Z,15.00
2018-10-07T19:17:28.200Z,14.90
2018-10-07T19:19:55.475Z,14.90
2018-10-07T19:22:22.850Z,14.90
2018-10-07T19:24:50.087Z,14.90
2018-10-07T19:27:17.347Z,14.80
2018-10-07T19:29:44.874Z,14.80
2018-10-07T19:32:12.087Z,14.80
2018-10-07T19:34:39.327Z,14.70
2018-10-07T19:37:07.318Z,14.50
2018-10-07T19:39:34.518Z,14.60
2018-10-07T19:42:01.832Z,14.60
2018-10-07T19:44:29.076Z,14.50
2018-10-07T19:46:56.303Z,14.50
2018-10-07T19:49:23.567Z,14.50
2018-10-07T19:51:50.814Z,14.40
2018-10-07T19:54:18.091Z,14.40
2018-10-07T19:56:45.329Z,14.50
2018-10-07T19:59:12.579Z,14.40
2018-10-07T20:01:39.819Z,14.60
2018-10-07T20:04:07.099Z,14.30
2018-10-07T20:06:34.425Z,14.40
2018-10-07T20:09:01.707Z,14.30
2018-10-07T20:11:29.364Z,14.10
2018-10-07T20:13:56.630Z,14.10
2018-10-07T20:16:23.895Z,14.10
2018-10-07T20:18:51.168Z,14.20
2018-10-07T20:21:18.387Z,14.20
2018-10-07T20:23:45.659Z,14.20
2018-10-07T20:26:13.000Z,14.20
2018-10-07T20:28:40.228Z,14.20
2018-10-07T20:31:07.470Z,14.20
2018-10-07T20:33:34.715Z,14.20
2018-10-07T20:36:01.951Z,14.10
2018-10-07T20:38:29.202Z,14.10
2018-10-07T20:40:56.517Z,14.20
2018-10-07T20:43:23.838Z,14.20
2018-10-07T20:45:51.064Z,14.20
2018-10-07T20:48:18.308Z,14.20
2018-10-07T20:50:45.571Z,14.10
2018-10-07T20:53:12.833Z,14.10
2018-10-07T20:55:40.132Z,14.00
2018-10-07T20:58:07.423Z,14.00
2018-10-07T21:00:34.683Z,13.80
2018-10-07T21:03:02.012Z,13.80
2018-10-07T21:05:30.270Z,13.70
2018-10-07T21:07:57.513Z,13.70
2018-10-07T21:10:24.739Z,13.60
2018-10-07T21:12:51.970Z,13.60
2018-10-07T21:15:19.233Z,13.50
2018-10-07T21:17:46.483Z,13.50
2018-10-07T21:20:13.725Z,13.50
2018-10-07T21:22:41.003Z,13.50
2018-10-07T21:25:08.232Z,13.40
2018-10-07T21:27:35.525Z,13.50
2018-10-07T21:30:02.853Z,13.40
2018-10-07T21:32:30.124Z,13.40
2018-10-07T21:34:57.356Z,13.40
2018-10-07T21:37:24.685Z,13.30
2018-10-07T21:39:51.848Z,13.30
2018-10-07T21:42:19.092Z,13.40
2018-10-07T21:44:46.331Z,13.30
2018-10-07T21:47:13.547Z,13.30
2018-10-07T21:49:40.800Z,13.30
2018-10-07T21:52:08.017Z,13.30
2018-10-07T21:54:35.259Z,13.30
2018-10-07T21:57:02.480Z,13.30
2018-10-07T21:59:29.703Z,13.30
2018-10-07T22:01:56.972Z,13.30
2018-10-07T22:04:24.208Z,13.30
2018-10-07T22:06:51.615Z,13.30
2018-10-07T22:09:19.912Z,13.30
2018-10-07T22:11:47.144Z,13.10
2018-10-07T22:14:14.347Z,13.30
2018-10-07T22:16:41.604Z,13.30
2018-10-07T22:19:08.870Z,13.20
2018-10-07T22:21:36.144Z,13.20
2018-10-07T22:24:03.547Z,13.40
2018-10-07T22:26:30.800Z,13.20
2018-10-07T22:28:58.040Z,13.20
2018-10-07T22:31:25.323Z,13.20
2018-10-07T22:33:52.567Z,12.50
2018-10-07T22:36:19.804Z,13.20
2018-10-07T22:38:47.163Z,13.00
2018-10-07T22:41:14.395Z,13.10
2018-10-07T22:43:41.611Z,13.10
2018-10-07T22:46:08.847Z,13.10
2018-10-07T22:48:36.109Z,13.10
2018-10-07T22:51:03.355Z,13.10
2018-10-07T22:53:30.633Z,13.10
2018-10-07T22:55:57.838Z,13.10
2018-10-07T22:58:25.064Z,13.10
2018-10-07T23:00:52.307Z,13.10
2018-10-07T23:03:19.597Z,13.00
2018-10-07T23:05:46.884Z,13.00
2018-10-07T23:08:14.092Z,13.10
2018-10-07T23:10:41.391Z,13.00
2018-10-07T23:13:08.623Z,13.00
2018-10-07T23:15:35.887Z,13.00
2018-10-07T23:18:03.130Z,13.00
2018-10-07T23:20:30.367Z,13.00
2018-10-07T23:22:57.651Z,13.00
2018-10-07T23:25:24.863Z,12.80
2018-10-07T23:27:52.153Z,12.80
2018-10-07T23:30:19.396Z,12.70
2018-10-07T23:32:46.643Z,12.80
2018-10-07T23:35:13.881Z,12.70
2018-10-07T23:37:41.106Z,12.70
2018-10-07T23:40:08.839Z,12.70
2018-10-07T23:42:36.056Z,12.70
2018-10-07T23:45:03.331Z,12.70
2018-10-07T23:47:30.563Z,13.30
2018-10-07T23:49:57.770Z,12.70
2018-10-07T23:52:24.999Z,12.80
2018-10-07T23:54:52.216Z,12.80
2018-10-07T23:57:19.483Z,12.80
2018-10-07T23:59:46.717Z,13.10
